Map

Track Data

SID SEASON NUMBER BASIN SUBBASIN NAME ISO_TIME NATURE LAT LON WMO_WIND WMO_PRES WMO_AGENCY TRACK_TYPE DIST2LAND LANDFALL IFLAG USA_AGENCY USA_ATCF_ID USA_LAT USA_LON USA_RECORD USA_STATUS USA_WIND USA_PRES USA_SSHS USA_R34_NE USA_R34_SE USA_R34_SW USA_R34_NW USA_R50_NE USA_R50_SE USA_R50_SW USA_R50_NW USA_R64_NE USA_R64_SE USA_R64_SW USA_R64_NW USA_POCI USA_ROCI USA_RMW USA_EYE TOKYO_LAT TOKYO_LON TOKYO_GRADE TOKYO_WIND TOKYO_PRES TOKYO_R50_DIR TOKYO_R50_LONG TOKYO_R50_SHORT TOKYO_R30_DIR TOKYO_R30_LONG TOKYO_R30_SHORT TOKYO_LAND CMA_LAT CMA_LON CMA_CAT CMA_WIND CMA_PRES HKO_LAT HKO_LON HKO_CAT HKO_WIND HKO_PRES NEWDELHI_LAT NEWDELHI_LON NEWDELHI_GRADE NEWDELHI_WIND NEWDELHI_PRES NEWDELHI_CI NEWDELHI_DP NEWDELHI_POCI REUNION_LAT REUNION_LON REUNION_TYPE REUNION_WIND REUNION_PRES REUNION_TNUM REUNION_CI REUNION_RMW REUNION_R34_NE REUNION_R34_SE REUNION_R34_SW REUNION_R34_NW REUNION_R50_NE REUNION_R50_SE REUNION_R50_SW REUNION_R50_NW REUNION_R64_NE REUNION_R64_SE REUNION_R64_SW REUNION_R64_NW BOM_LAT BOM_LON BOM_TYPE BOM_WIND BOM_PRES BOM_TNUM BOM_CI BOM_RMW BOM_R34_NE BOM_R34_SE BOM_R34_SW BOM_R34_NW BOM_R50_NE BOM_R50_SE BOM_R50_SW BOM_R50_NW BOM_R64_NE BOM_R64_SE BOM_R64_SW BOM_R64_NW BOM_ROCI BOM_POCI BOM_EYE BOM_POS_METHOD BOM_PRES_METHOD NADI_LAT NADI_LON NADI_CAT NADI_WIND NADI_PRES WELLINGTON_LAT WELLINGTON_LON WELLINGTON_WIND WELLINGTON_PRES DS824_LAT DS824_LON DS824_STAGE DS824_WIND DS824_PRES TD9636_LAT TD9636_LON TD9636_STAGE TD9636_WIND TD9636_PRES TD9635_LAT TD9635_LON TD9635_WIND TD9635_PRES TD9635_ROCI NEUMANN_LAT NEUMANN_LON NEUMANN_CLASS NEUMANN_WIND NEUMANN_PRES MLC_LAT MLC_LON MLC_CLASS MLC_WIND MLC_PRES USA_GUST BOM_GUST BOM_GUST_PER REUNION_GUST REUNION_GUST_PER USA_SEAHGT USA_SEARAD_NE USA_SEARAD_SE USA_SEARAD_SW USA_SEARAD_NW STORM_SPEED STORM_DIR
1915263N26297 1915 35 NA NA NOT_NAMED 1915-09-19 12:00:00 TS 25.5000 -63.5000 30 hurdat_atl main 822 822 O_____________ hurdat_atl AL051915 25.5000 -63.5000 TD 30 -1 12 5
1915263N26297 1915 35 NA NA NOT_NAMED 1915-09-19 15:00:00 TS 26.1025 -63.4452 main 890 890 P_____________ AL051915 26.1025 -63.4452 TD 30 -1 12 4
1915263N26297 1915 35 NA NA NOT_NAMED 1915-09-19 18:00:00 TS 26.7000 -63.4000 30 hurdat_atl main 954 954 O_____________ hurdat_atl AL051915 26.7000 -63.4000 TD 30 -1 12 4
1915263N26297 1915 35 NA NA NOT_NAMED 1915-09-19 21:00:00 TS 27.2925 -63.3647 main 1019 1019 P_____________ AL051915 27.2925 -63.3647 TD 32 -1 12 4
1915263N26297 1915 35 NA NA NOT_NAMED 1915-09-20 00:00:00 TS 27.9000 -63.3000 35 hurdat_atl main 1087 1087 O_____________ hurdat_atl AL051915 27.9000 -63.3000 TS 35 0 13 7
1915263N26297 1915 35 NA NA NOT_NAMED 1915-09-20 03:00:00 TS 28.5425 -63.1798 main 1154 1154 P_____________ AL051915 28.5425 -63.1798 TS 35 0 13 11
1915263N26297 1915 35 NA NA NOT_NAMED 1915-09-20 06:00:00 TS 29.2000 -63.0000 35 hurdat_atl main 1235 1235 O_____________ hurdat_atl AL051915 29.2000 -63.0000 TS 35 0 13 14
1915263N26297 1915 35 NA NA NOT_NAMED 1915-09-20 09:00:00 TS 29.8422 -62.8016 main 1305 1305 P_____________ AL051915 29.8422 -62.8016 TS 37 0 14 18
1915263N26297 1915 35 NA NA NOT_NAMED 1915-09-20 12:00:00 TS 30.5000 -62.5000 40 hurdat_atl main 1343 1333 O_____________ hurdat_atl AL051915 30.5000 -62.5000 TS 40 0 15 24
1915263N26297 1915 35 NA NA NOT_NAMED 1915-09-20 15:00:00 TS 31.1840 -62.1106 main 1340 1325 P_____________ AL051915 31.1840 -62.1106 TS 40 0 16 31
1915263N26297 1915 35 NA NA NOT_NAMED 1915-09-20 18:00:00 TS 31.9000 -61.5000 40 hurdat_atl main 1325 1275 O_____________ hurdat_atl AL051915 31.9000 -61.5000 TS 40 0 19 40
1915263N26297 1915 35 NA NA NOT_NAMED 1915-09-20 21:00:00 TS 32.6473 -60.6850 main 1277 1227 P_____________ AL051915 32.6473 -60.6850 TS 42 0 23 48
1915263N26297 1915 35 NA NA NOT_NAMED 1915-09-21 00:00:00 TS 33.4000 -59.5000 45 hurdat_atl main 1231 1220 O_____________ hurdat_atl AL051915 33.4000 -59.5000 TS 45 0 28 58
1915263N26297 1915 35 NA NA NOT_NAMED 1915-09-21 03:00:00 TS 34.1257 -57.8262 main 1229 1224 P_____________ AL051915 34.1257 -57.8262 TS 45 0 32 64
1915263N26297 1915 35 NA NA NOT_NAMED 1915-09-21 06:00:00 TS 34.8000 -56.0000 45 hurdat_atl main 1235 1220 O_____________ hurdat_atl AL051915 34.8000 -56.0000 TS 45 0 31 65
1915263N26297 1915 35 NA NA NOT_NAMED 1915-09-21 09:00:00 TS 35.4290 -54.3862 main 1227 1179 P_____________ AL051915 35.4290 -54.3862 TS 45 0 27 64
1915263N26297 1915 35 NA NA NOT_NAMED 1915-09-21 12:00:00 TS 36.0000 -53.0000 45 hurdat_atl main 1179 1127 O_____________ hurdat_atl AL051915 36.0000 -53.0000 TS 45 0 23 61
1915263N26297 1915 35 NA NA NOT_NAMED 1915-09-21 15:00:00 TS 36.5652 -51.8866 main 1117 1081 P_____________ AL051915 36.5652 -51.8866 TS 45 0 19 58
1915263N26297 1915 35 NA NA NOT_NAMED 1915-09-21 18:00:00 TS 37.0000 -51.0000 45 hurdat_atl main 1083 1068 O_____________ hurdat_atl AL051915 37.0000 -51.0000 TS 45 0 15 65
1915263N26297 1915 35 NA NA NOT_NAMED 1915-09-21 21:00:00 TS 37.2168 -50.1732 main 1074 1067 P_____________ AL051915 37.2168 -50.1732 TS 45 0 12 76
1915263N26297 1915 35 NA NA NOT_NAMED 1915-09-22 00:00:00 TS 37.3000 -49.5000 45 hurdat_atl main 1078 1078 O_____________ hurdat_atl AL051915 37.3000 -49.5000 TS 45 0 10 82
1915263N26297 1915 35 NA NA NOT_NAMED 1915-09-22 03:00:00 TS 37.3646 -48.9245 main 1082 1082 P_____________ AL051915 37.3646 -48.9245 TS 47 0 8 83
1915263N26297 1915 35 NA NA NOT_NAMED 1915-09-22 06:00:00 TS 37.4000 -48.5000 50 hurdat_atl main 1093 1093 O_____________ hurdat_atl AL051915 37.4000 -48.5000 TS 50 0 6 81
1915263N26297 1915 35 NA NA NOT_NAMED 1915-09-22 09:00:00 TS 37.4496 -48.2124 main 1102 1091 P_____________ AL051915 37.4496 -48.2124 TS 50 0 4 76
1915263N26297 1915 35 NA NA NOT_NAMED 1915-09-22 12:00:00 TS 37.5000 -48.0000 50 hurdat_atl main 1098 1098 O_____________ hurdat_atl AL051915 37.5000 -48.0000 TS 50 0 4 74
1915263N26297 1915 35 NA NA NOT_NAMED 1915-09-22 15:00:00 TS 37.5498 -47.7649 main 1104 1094 P_____________ AL051915 37.5498 -47.7649 TS 50 0 4 76
1915263N26297 1915 35 NA NA NOT_NAMED 1915-09-22 18:00:00 TS 37.6000 -47.5000 50 hurdat_atl main 1104 1104 O_____________ hurdat_atl AL051915 37.6000 -47.5000 TS 50 0 5 78
1915263N26297 1915 35 NA NA NOT_NAMED 1915-09-22 21:00:00 TS 37.6499 -47.1725 main 1115 1105 P_____________ AL051915 37.6499 -47.1725 TS 45 0 6 80
1915263N26297 1915 35 NA NA NOT_NAMED 1915-09-23 00:00:00 ET 37.7000 -46.8000 40 hurdat_atl main 1119 1119 O_____________ hurdat_atl AL051915 37.7000 -46.8000 EX 40 -4 6 81
1915263N26297 1915 35 NA NA NOT_NAMED 1915-09-23 03:00:00 ET 37.7503 -46.4051 main 1125 1125 P_____________ AL051915 37.7503 -46.4051 EX 37 -4 6 81
1915263N26297 1915 35 NA NA NOT_NAMED 1915-09-23 06:00:00 ET 37.8000 -46.0000 35 hurdat_atl main 1142 O_____________ hurdat_atl AL051915 37.8000 -46.0000 EX 35 -4 6 81

About IBTrACS Database

This database is a web-friendly format of International Best Track Archive for Climate Stewardship (IBTrACS), a global best track data archive curated by NOAA dating back to 1842.

Updated: 2021-10-21